createdAt,value
2023-03-26T00:01:40.626Z,99.39
2023-03-26T00:04:08.545Z,99.56
2023-03-26T00:06:39.651Z,100.00
2023-03-26T00:09:10.382Z,100.00
2023-03-26T00:11:37.761Z,100.00
2023-03-26T00:14:05.813Z,100.00
2023-03-26T00:16:34.014Z,99.83
2023-03-26T00:19:02.655Z,99.37
2023-03-26T00:21:31.462Z,99.85
2023-03-26T00:24:04.537Z,100.00
2023-03-26T00:26:38.564Z,100.00
2023-03-26T00:29:08.366Z,100.00
2023-03-26T00:31:37.994Z,99.77
2023-03-26T00:34:06.132Z,100.00
2023-03-26T00:36:35.993Z,99.13
2023-03-26T00:39:06.325Z,99.05
2023-03-26T00:41:37.323Z,100.00
2023-03-26T00:44:05.606Z,100.00
2023-03-26T00:46:32.904Z,99.99
2023-03-26T00:49:01.931Z,100.00
2023-03-26T00:51:29.656Z,100.00
2023-03-26T00:53:58.052Z,100.00
2023-03-26T00:56:26.217Z,100.00
2023-03-26T00:58:53.900Z,100.00
2023-03-26T01:01:29.320Z,100.00
2023-03-26T01:04:07.580Z,100.00
2023-03-26T01:06:42.240Z,100.00
2023-03-26T01:09:21.125Z,100.00
2023-03-26T01:11:49.621Z,99.42
2023-03-26T01:14:24.452Z,99.42
2023-03-26T01:16:55.215Z,99.57
2023-03-26T01:19:47.634Z,99.83
2023-03-26T01:22:21.375Z,99.45
2023-03-26T01:24:58.690Z,100.00
2023-03-26T01:27:50.292Z,99.67
2023-03-26T01:30:31.080Z,100.00
2023-03-26T01:33:36.691Z,100.00
2023-03-26T01:36:13.159Z,100.00
2023-03-26T01:39:09.777Z,100.00
2023-03-26T01:42:00.806Z,100.00
2023-03-26T01:44:41.620Z,100.00
2023-03-26T01:47:09.923Z,100.00
2023-03-26T01:49:37.155Z,100.00
2023-03-26T01:52:12.808Z,100.00
2023-03-26T01:54:41.379Z,100.00
2023-03-26T01:57:21.154Z,100.00
2023-03-26T02:00:14.242Z,100.00
2023-03-26T02:02:59.431Z,100.00
2023-03-26T02:05:45.008Z,100.00
2023-03-26T02:08:24.599Z,100.00
2023-03-26T02:10:57.669Z,100.00
2023-03-26T02:13:26.409Z,100.00
2023-03-26T02:16:02.969Z,100.00
2023-03-26T02:18:36.840Z,100.00
2023-03-26T02:21:06.857Z,100.00
2023-03-26T02:23:35.901Z,100.00
2023-03-26T02:26:07.307Z,100.00
2023-03-26T02:28:37.964Z,100.00
2023-03-26T02:31:06.006Z,100.00
2023-03-26T02:33:33.747Z,100.00
2023-03-26T02:36:04.678Z,100.00
2023-03-26T02:38:35.614Z,100.00
2023-03-26T02:41:04.595Z,100.00
2023-03-26T02:43:46.983Z,100.00
2023-03-26T02:46:17.051Z,100.00
2023-03-26T02:49:13.748Z,100.00
2023-03-26T02:51:43.167Z,100.00
2023-03-26T02:54:24.543Z,100.00
2023-03-26T02:56:56.940Z,100.00
2023-03-26T02:59:38.774Z,100.00
2023-03-26T03:02:29.336Z,100.00
2023-03-26T03:05:05.877Z,100.00
2023-03-26T03:07:38.012Z,100.00
2023-03-26T03:10:08.722Z,100.00
2023-03-26T03:12:59.611Z,100.00
2023-03-26T03:15:28.294Z,100.00
2023-03-26T03:17:55.703Z,100.00
2023-03-26T03:20:23.677Z,100.00
2023-03-26T03:22:51.004Z,100.00
2023-03-26T03:25:18.666Z,100.00
2023-03-26T03:27:48.001Z,100.00
2023-03-26T03:30:16.317Z,100.00
2023-03-26T03:32:46.822Z,100.00
2023-03-26T03:35:19.203Z,100.00
2023-03-26T03:37:50.541Z,100.00
2023-03-26T03:40:18.405Z,100.00
2023-03-26T03:42:47.002Z,100.00
2023-03-26T03:45:20.398Z,100.00
2023-03-26T03:48:01.619Z,100.00
2023-03-26T03:50:39.007Z,100.00
2023-03-26T03:53:26.551Z,100.00
2023-03-26T03:55:57.598Z,100.00
2023-03-26T03:58:36.980Z,100.00
2023-03-26T04:01:13.558Z,100.00
2023-03-26T04:03:55.275Z,100.00
2023-03-26T04:06:30.239Z,100.00
2023-03-26T04:08:57.548Z,100.00
2023-03-26T04:11:25.398Z,100.00
2023-03-26T04:14:12.951Z,100.00
2023-03-26T04:16:58.077Z,100.00
2023-03-26T04:19:27.496Z,100.00
2023-03-26T04:21:55.510Z,100.00
2023-03-26T04:24:24.592Z,100.00
2023-03-26T04:27:25.646Z,100.00
2023-03-26T04:29:53.153Z,100.00
2023-03-26T04:32:29.773Z,100.00
2023-03-26T04:35:00.963Z,100.00
2023-03-26T04:37:40.124Z,100.00
2023-03-26T04:40:30.653Z,100.00
2023-03-26T04:43:18.519Z,100.00
2023-03-26T04:46:18.565Z,100.00
2023-03-26T04:48:53.076Z,100.00
2023-03-26T04:51:24.375Z,100.00
2023-03-26T04:53:54.477Z,100.00
2023-03-26T04:56:27.702Z,100.00
2023-03-26T04:59:26.189Z,100.00
2023-03-26T05:01:56.935Z,100.00
2023-03-26T05:04:26.907Z,100.00
2023-03-26T05:06:54.256Z,100.00
2023-03-26T05:09:33.648Z,100.00
2023-03-26T05:12:21.666Z,100.00
2023-03-26T05:14:54.853Z,100.00
2023-03-26T05:17:35.091Z,100.00
2023-03-26T05:20:05.184Z,100.00
2023-03-26T05:22:36.610Z,100.00
2023-03-26T05:25:25.808Z,100.00
2023-03-26T05:27:53.909Z,100.00
2023-03-26T05:30:24.915Z,99.60
2023-03-26T05:32:56.929Z,99.81
2023-03-26T05:35:29.968Z,99.23
2023-03-26T05:37:57.823Z,99.53
2023-03-26T05:40:26.354Z,99.96
2023-03-26T05:43:02.709Z,100.00
2023-03-26T05:45:57.138Z,100.00
2023-03-26T05:48:28.089Z,100.00
2023-03-26T05:50:57.696Z,100.00
2023-03-26T05:53:28.081Z,100.00
2023-03-26T05:56:08.359Z,100.00
2023-03-26T05:58:55.770Z,100.00
2023-03-26T06:01:29.417Z,99.51
2023-03-26T06:04:18.288Z,97.15
2023-03-26T06:06:57.725Z,95.77
2023-03-26T06:09:25.441Z,95.58
2023-03-26T06:11:53.029Z,94.47
2023-03-26T06:14:20.881Z,93.01
2023-03-26T06:17:18.033Z,89.54
2023-03-26T06:20:20.883Z,90.49
2023-03-26T06:22:50.534Z,88.57
2023-03-26T06:25:48.448Z,86.51
2023-03-26T06:28:36.709Z,83.61
2023-03-26T06:31:27.381Z,83.43
2023-03-26T06:34:11.324Z,84.99
2023-03-26T06:36:38.730Z,82.93
2023-03-26T06:39:07.537Z,84.14
2023-03-26T06:41:37.512Z,80.70
2023-03-26T06:44:16.047Z,79.70
2023-03-26T06:47:18.731Z,83.89
2023-03-26T06:49:58.389Z,82.88
2023-03-26T06:52:48.535Z,79.88
2023-03-26T06:55:31.623Z,79.33
2023-03-26T06:58:06.631Z,80.34
2023-03-26T07:00:42.942Z,79.78
2023-03-26T07:03:29.603Z,81.12
2023-03-26T07:06:15.951Z,83.08
2023-03-26T07:09:02.171Z,85.77
2023-03-26T07:11:48.619Z,90.04
2023-03-26T07:14:51.901Z,89.67
2023-03-26T07:17:22.487Z,88.96
2023-03-26T07:19:54.768Z,87.66
2023-03-26T07:22:26.554Z,91.55
2023-03-26T07:25:14.118Z,89.07
2023-03-26T07:28:20.940Z,86.54
2023-03-26T07:31:34.949Z,81.20
2023-03-26T07:34:40.904Z,80.27
2023-03-26T07:37:38.401Z,79.00
2023-03-26T07:40:30.335Z,78.05
2023-03-26T07:44:03.675Z,81.02
2023-03-26T07:46:49.492Z,82.61
2023-03-26T07:49:32.884Z,84.97
2023-03-26T07:52:19.506Z,89.16
2023-03-26T07:55:07.389Z,90.41
2023-03-26T07:58:22.771Z,93.04
2023-03-26T08:01:19.091Z,94.07
2023-03-26T08:04:24.867Z,94.86
2023-03-26T08:07:45.157Z,95.13
2023-03-26T08:10:43.221Z,93.50
2023-03-26T08:13:38.953Z,95.06
2023-03-26T08:16:19.479Z,92.44
2023-03-26T08:19:08.021Z,90.57
2023-03-26T08:21:42.262Z,76.41
2023-03-26T08:24:22.992Z,68.46
2023-03-26T08:27:08.803Z,63.85
2023-03-26T08:30:02.271Z,63.85
2023-03-26T08:32:30.490Z,68.58
2023-03-26T08:35:00.189Z,66.95
2023-03-26T08:37:29.321Z,66.73
2023-03-26T08:39:57.153Z,69.15
2023-03-26T08:42:58.036Z,68.80
2023-03-26T08:45:58.615Z,74.58
2023-03-26T08:48:44.872Z,78.06
2023-03-26T08:51:18.278Z,79.04
2023-03-26T08:54:04.491Z,75.32
2023-03-26T08:56:54.330Z,70.06
2023-03-26T08:59:53.502Z,69.71
2023-03-26T09:02:53.624Z,67.98
2023-03-26T09:05:49.259Z,64.25
2023-03-26T09:08:54.292Z,67.67
2023-03-26T09:11:50.240Z,65.96
2023-03-26T09:14:45.387Z,64.06
2023-03-26T09:17:30.443Z,62.31
2023-03-26T09:20:26.522Z,69.47
2023-03-26T09:23:20.910Z,68.01
2023-03-26T09:26:12.717Z,69.14
2023-03-26T09:28:56.211Z,70.74
2023-03-26T09:32:03.617Z,77.46
2023-03-26T09:34:58.383Z,76.52
2023-03-26T09:37:26.707Z,77.75
2023-03-26T09:40:12.560Z,82.18
2023-03-26T09:43:02.771Z,81.36
2023-03-26T09:46:06.106Z,79.17
2023-03-26T09:48:42.518Z,80.12
2023-03-26T09:51:33.297Z,78.84
2023-03-26T09:54:25.413Z,82.09
2023-03-26T09:57:18.002Z,85.71
2023-03-26T10:00:20.981Z,83.29
2023-03-26T10:03:12.410Z,86.19
2023-03-26T10:05:41.513Z,90.30
2023-03-26T10:08:48.119Z,88.74
2023-03-26T10:11:56.884Z,93.64
2023-03-26T10:14:24.525Z,92.40
2023-03-26T10:17:13.516Z,90.02
2023-03-26T10:20:11.187Z,91.13
2023-03-26T10:22:54.185Z,90.46
2023-03-26T10:26:04.393Z,92.90
2023-03-26T10:28:50.703Z,95.67
2023-03-26T10:31:27.390Z,91.13
2023-03-26T10:34:29.423Z,90.77
2023-03-26T10:37:32.761Z,91.30
2023-03-26T10:40:19.282Z,79.68
2023-03-26T10:43:14.764Z,67.20
2023-03-26T10:46:13.578Z,61.99
2023-03-26T10:48:51.039Z,59.58
2023-03-26T10:51:24.240Z,63.68
2023-03-26T10:54:08.169Z,66.05
2023-03-26T10:56:45.418Z,68.14
2023-03-26T10:59:15.022Z,71.90
2023-03-26T11:02:05.973Z,74.64
2023-03-26T11:04:54.752Z,75.74
2023-03-26T11:07:31.924Z,80.94
2023-03-26T11:10:36.956Z,83.70
2023-03-26T11:13:24.438Z,89.25
2023-03-26T11:16:00.774Z,94.25
2023-03-26T11:18:45.155Z,92.33
2023-03-26T11:21:35.787Z,88.83
2023-03-26T11:24:35.408Z,93.39
2023-03-26T11:27:39.302Z,90.56
2023-03-26T11:30:25.731Z,90.31
2023-03-26T11:32:58.520Z,88.36
2023-03-26T11:35:58.458Z,91.08
2023-03-26T11:38:39.193Z,86.84
2023-03-26T11:41:26.940Z,91.98
2023-03-26T11:44:04.082Z,85.22
2023-03-26T11:46:35.514Z,85.67
2023-03-26T11:49:11.208Z,83.40
2023-03-26T11:51:43.210Z,86.58
2023-03-26T11:54:12.730Z,84.79
2023-03-26T11:57:04.937Z,84.30
2023-03-26T11:59:56.546Z,82.50
2023-03-26T12:02:32.359Z,83.06
2023-03-26T12:05:25.110Z,81.93
2023-03-26T12:07:56.876Z,83.07
2023-03-26T12:10:29.290Z,82.36
2023-03-26T12:13:02.685Z,84.29
2023-03-26T12:15:32.251Z,85.60
2023-03-26T12:18:19.871Z,84.92
2023-03-26T12:20:49.507Z,81.28
2023-03-26T12:23:36.935Z,82.14
2023-03-26T12:26:14.443Z,79.34
2023-03-26T12:28:47.124Z,79.11
2023-03-26T12:31:19.343Z,75.19
2023-03-26T12:34:14.100Z,75.34
2023-03-26T12:36:49.747Z,76.66
2023-03-26T12:40:07.133Z,75.10
2023-03-26T12:44:51.502Z,78.63
2023-03-26T12:45:22.208Z,80.05
2023-03-26T12:47:59.995Z,77.05
2023-03-26T12:50:45.689Z,77.63
2023-03-26T12:53:16.185Z,75.51
2023-03-26T12:55:58.710Z,72.46
2023-03-26T12:59:00.197Z,69.87
2023-03-26T13:02:06.278Z,71.79
2023-03-26T13:05:06.847Z,72.87
2023-03-26T13:08:12.670Z,70.67
2023-03-26T13:10:49.951Z,72.40
2023-03-26T13:13:37.648Z,73.82
2023-03-26T13:16:14.086Z,72.31
2023-03-26T13:18:52.766Z,71.81
2023-03-26T13:21:26.710Z,71.94
2023-03-26T13:24:00.700Z,70.73
2023-03-26T13:27:23.834Z,68.64
2023-03-26T13:30:16.274Z,71.20
2023-03-26T13:33:08.866Z,70.58
2023-03-26T13:36:23.295Z,72.27
2023-03-26T13:39:03.719Z,71.26
2023-03-26T13:41:37.819Z,68.41
2023-03-26T13:44:44.964Z,70.33
2023-03-26T13:47:18.708Z,71.24
2023-03-26T13:50:00.629Z,70.77
2023-03-26T13:52:40.287Z,69.79
2023-03-26T13:55:48.757Z,69.27
2023-03-26T13:58:49.233Z,69.99
2023-03-26T14:01:23.360Z,68.77
2023-03-26T14:03:54.008Z,68.80
2023-03-26T14:06:57.351Z,70.04
2023-03-26T14:09:31.509Z,69.02
2023-03-26T14:12:21.762Z,67.38
2023-03-26T14:15:11.718Z,68.04
2023-03-26T14:17:48.293Z,67.78
2023-03-26T14:20:19.997Z,70.03
2023-03-26T14:22:56.875Z,68.44
2023-03-26T14:25:30.718Z,69.40
2023-03-26T14:28:16.725Z,68.93
2023-03-26T14:30:54.570Z,69.66
2023-03-26T14:33:46.548Z,69.55
2023-03-26T14:36:43.127Z,67.31
2023-03-26T14:39:19.496Z,67.53
2023-03-26T14:41:59.224Z,68.23
2023-03-26T14:44:48.018Z,66.91
2023-03-26T14:47:17.964Z,68.23
2023-03-26T14:50:28.851Z,67.48
2023-03-26T14:53:01.206Z,67.34
2023-03-26T14:55:50.996Z,66.69
2023-03-26T14:58:55.846Z,65.86
2023-03-26T15:01:29.230Z,65.75
2023-03-26T15:04:45.069Z,66.85
2023-03-26T15:07:42.769Z,64.27
2023-03-26T15:10:28.438Z,64.88
2023-03-26T15:13:33.423Z,64.86
2023-03-26T15:16:21.847Z,66.05
2023-03-26T15:19:30.017Z,65.98
2023-03-26T15:22:03.129Z,66.11
2023-03-26T15:25:15.355Z,63.24
2023-03-26T15:27:52.980Z,64.39
2023-03-26T15:30:39.095Z,64.55
2023-03-26T15:33:43.882Z,62.55
2023-03-26T15:36:35.551Z,63.33
2023-03-26T15:39:59.652Z,64.78
2023-03-26T15:42:49.859Z,65.40
2023-03-26T15:45:19.902Z,64.36
2023-03-26T15:48:01.333Z,64.72
2023-03-26T15:50:39.768Z,64.75
2023-03-26T15:53:18.704Z,64.89
2023-03-26T15:55:54.880Z,67.77
2023-03-26T15:58:30.882Z,68.38
2023-03-26T16:01:36.862Z,68.41
2023-03-26T16:04:51.100Z,67.08
2023-03-26T16:07:47.300Z,69.54
2023-03-26T16:10:41.233Z,71.50
2023-03-26T16:13:20.758Z,72.15
2023-03-26T16:15:58.701Z,71.60
2023-03-26T16:18:38.364Z,70.75
2023-03-26T16:21:36.612Z,70.16
2023-03-26T16:24:03.803Z,73.03
2023-03-26T16:27:03.266Z,73.11
2023-03-26T16:29:31.438Z,72.69
2023-03-26T16:32:16.443Z,70.10
2023-03-26T16:34:55.215Z,70.00
2023-03-26T16:37:43.913Z,67.85
2023-03-26T16:40:23.606Z,68.10
2023-03-26T16:43:24.348Z,68.85
2023-03-26T16:46:15.091Z,68.98
2023-03-26T16:49:10.741Z,68.93
2023-03-26T16:51:56.567Z,68.39
2023-03-26T16:54:47.100Z,68.23
2023-03-26T16:57:52.892Z,67.34
2023-03-26T17:00:31.429Z,67.36
2023-03-26T17:03:27.091Z,68.71
2023-03-26T17:05:56.524Z,69.15
2023-03-26T17:09:01.530Z,69.38
2023-03-26T17:11:47.602Z,70.07
2023-03-26T17:14:26.123Z,69.67
2023-03-26T17:17:23.211Z,68.35
2023-03-26T17:20:11.270Z,67.60
2023-03-26T17:23:15.332Z,69.30
2023-03-26T17:25:52.657Z,68.44
2023-03-26T17:29:01.977Z,68.26
2023-03-26T17:31:51.152Z,68.81
2023-03-26T17:34:55.009Z,68.16
2023-03-26T17:37:22.164Z,67.80
2023-03-26T17:40:01.699Z,67.83
2023-03-26T17:42:33.932Z,68.91
2023-03-26T17:45:03.097Z,69.13
2023-03-26T17:47:49.789Z,69.17
2023-03-26T17:50:24.159Z,69.63
2023-03-26T17:53:02.123Z,70.18
2023-03-26T17:55:33.032Z,70.14
2023-03-26T17:58:06.782Z,70.21
2023-03-26T18:00:43.615Z,70.90
2023-03-26T18:03:20.219Z,72.03
2023-03-26T18:05:49.188Z,71.62
2023-03-26T18:08:25.655Z,70.94
2023-03-26T18:11:23.859Z,69.94
2023-03-26T18:13:50.988Z,68.97
2023-03-26T18:16:24.436Z,68.76
2023-03-26T18:18:59.169Z,68.08
2023-03-26T18:21:38.641Z,68.02
2023-03-26T18:24:12.163Z,69.36
2023-03-26T18:26:45.823Z,67.60
2023-03-26T18:29:22.341Z,69.15
2023-03-26T18:31:58.361Z,69.16
2023-03-26T18:34:29.284Z,68.83
2023-03-26T18:37:03.050Z,69.40
2023-03-26T18:39:30.305Z,70.26
2023-03-26T18:41:58.392Z,69.48
2023-03-26T18:44:26.240Z,69.48
2023-03-26T18:46:55.159Z,70.45
2023-03-26T18:49:25.641Z,71.98
2023-03-26T18:51:57.273Z,71.77
2023-03-26T18:54:30.094Z,71.48
2023-03-26T18:56:58.977Z,72.05
2023-03-26T18:59:28.308Z,71.35
2023-03-26T19:01:57.789Z,71.76
2023-03-26T19:04:27.632Z,73.74
2023-03-26T19:06:56.994Z,74.66
2023-03-26T19:09:31.628Z,74.23
2023-03-26T19:12:18.089Z,75.29
2023-03-26T19:15:16.165Z,76.89
2023-03-26T19:17:53.322Z,78.04
2023-03-26T19:20:27.560Z,78.73
2023-03-26T19:22:57.009Z,78.07
2023-03-26T19:25:31.661Z,78.02
2023-03-26T19:27:59.796Z,77.12
2023-03-26T19:30:32.994Z,76.98
2023-03-26T19:33:13.117Z,76.01
2023-03-26T19:35:46.870Z,76.34
2023-03-26T19:38:27.536Z,76.48
2023-03-26T19:40:58.461Z,77.05
2023-03-26T19:43:26.990Z,77.45
2023-03-26T19:45:59.702Z,77.41
2023-03-26T19:48:50.415Z,77.74
2023-03-26T19:51:21.597Z,77.27
2023-03-26T19:53:59.097Z,76.82
2023-03-26T19:56:29.441Z,76.49
2023-03-26T19:58:57.604Z,75.49
2023-03-26T20:01:30.208Z,75.74
2023-03-26T20:04:04.831Z,75.26
2023-03-26T20:06:42.408Z,77.28
2023-03-26T20:09:14.391Z,77.72
2023-03-26T20:11:42.096Z,77.91
2023-03-26T20:14:18.122Z,78.01
2023-03-26T20:16:46.256Z,78.45
2023-03-26T20:19:15.370Z,78.67
2023-03-26T20:21:43.466Z,78.37
2023-03-26T20:24:13.480Z,77.94
2023-03-26T20:26:40.865Z,79.96
2023-03-26T20:29:08.543Z,79.69
2023-03-26T20:31:36.245Z,79.12
2023-03-26T20:34:04.196Z,77.33
2023-03-26T20:36:34.310Z,78.07
2023-03-26T20:39:06.343Z,78.25
2023-03-26T20:41:35.425Z,78.97
2023-03-26T20:44:05.046Z,78.47
2023-03-26T20:46:33.297Z,78.11
2023-03-26T20:49:00.989Z,77.61
2023-03-26T20:51:28.976Z,78.76
2023-03-26T20:53:56.769Z,79.75
2023-03-26T20:56:24.056Z,78.63
2023-03-26T20:59:09.760Z,78.03
2023-03-26T21:01:38.659Z,79.63
2023-03-26T21:04:07.174Z,80.00
2023-03-26T21:06:34.540Z,80.07
2023-03-26T21:09:02.293Z,80.47
2023-03-26T21:11:38.412Z,80.76
2023-03-26T21:14:21.239Z,82.12
2023-03-26T21:16:48.789Z,81.68
2023-03-26T21:19:16.670Z,82.96
2023-03-26T21:21:57.642Z,86.51
2023-03-26T21:24:49.671Z,86.45
2023-03-26T21:27:36.125Z,86.44
2023-03-26T21:30:11.215Z,85.78
2023-03-26T21:32:39.284Z,85.83
2023-03-26T21:35:08.535Z,85.64
2023-03-26T21:37:37.663Z,86.42
2023-03-26T21:40:16.692Z,85.08
2023-03-26T21:42:46.804Z,83.65
2023-03-26T21:45:14.902Z,84.42
2023-03-26T21:47:42.484Z,84.57
2023-03-26T21:50:13.323Z,83.85
2023-03-26T21:52:47.254Z,83.18
2023-03-26T21:55:17.385Z,82.75
2023-03-26T21:58:06.267Z,81.67
2023-03-26T22:01:09.621Z,85.23
2023-03-26T22:04:07.994Z,85.42
2023-03-26T22:07:00.908Z,84.94
2023-03-26T22:12:02.165Z,83.64
2023-03-26T22:14:29.460Z,82.81
2023-03-26T22:16:57.232Z,80.63
2023-03-26T22:19:24.560Z,80.28
2023-03-26T22:21:52.097Z,79.95
2023-03-26T22:24:19.831Z,80.85
2023-03-26T22:26:47.847Z,78.25
2023-03-26T22:29:15.128Z,81.09
2023-03-26T22:31:43.054Z,80.95
2023-03-26T22:34:10.311Z,80.92
2023-03-26T22:36:40.238Z,79.32
2023-03-26T22:39:07.670Z,79.02
2023-03-26T22:41:35.259Z,80.98
2023-03-26T22:44:18.517Z,80.66
2023-03-26T22:46:51.427Z,81.66
2023-03-26T22:49:19.142Z,80.38
2023-03-26T22:51:46.951Z,81.26
2023-03-26T22:54:14.676Z,80.18
2023-03-26T22:56:43.645Z,80.55
2023-03-26T22:59:10.844Z,81.86
2023-03-26T23:01:38.337Z,82.12
2023-03-26T23:04:06.047Z,80.86
2023-03-26T23:06:33.653Z,81.84
2023-03-26T23:09:01.288Z,80.63
2023-03-26T23:11:30.656Z,79.55
2023-03-26T23:13:57.973Z,79.40
2023-03-26T23:16:26.555Z,78.39
2023-03-26T23:18:53.789Z,79.44
2023-03-26T23:21:22.468Z,79.36
2023-03-26T23:23:52.288Z,79.48
2023-03-26T23:26:20.124Z,80.01
2023-03-26T23:28:47.909Z,79.89
2023-03-26T23:31:15.465Z,79.32
2023-03-26T23:33:46.721Z,78.22
2023-03-26T23:36:18.386Z,76.89
2023-03-26T23:38:48.571Z,75.03
2023-03-26T23:41:19.423Z,73.91
2023-03-26T23:43:54.596Z,71.82
2023-03-26T23:46:25.771Z,71.55
2023-03-26T23:48:53.585Z,71.07
2023-03-26T23:51:22.452Z,72.23
2023-03-26T23:53:49.915Z,73.06
2023-03-26T23:56:17.867Z,72.83
2023-03-26T23:58:45.284Z,72.46
